Terminal Aerodrome Forecast
Issued by NWS

Home | Current Version | Previous Version | Text Only | Print | Product List | Glossary On
Versions: 1 2 3 4 5 6 7 8 9 10 11 12 13 14 15
000
FTUS45 KBOI 042340
TAFBKE
TAF
KBKE 042340Z 0500/0524 27007KT P6SM VCSH SCT100 OVC200
     FM050200 28006KT P6SM VCTS SCT100CB OVC200
      TEMPO 0502/0504 VRB10G25KT P6SM -TSRA BKN050CB
     FM050400 30007KT P6SM VCSH OVC100
     FM051000 30009KT P6SM BKN150=

USA.gov is the U.S. government's official web portal to all federal, state and local government web resources and services.